sensor_id;sensor_type;location;lat;lon;timestamp;pressure;altitude;pressure_sealevel;temperature;humidity
35507;BME280;36461;52.018;21.036;2022-12-29T00:01:36;100106.00;;;5.58;77.43
35507;BME280;36461;52.018;21.036;2022-12-29T00:04:04;100108.09;;;5.60;77.23
35507;BME280;36461;52.018;21.036;2022-12-29T00:06:32;100108.06;;;5.61;77.36
35507;BME280;36461;52.018;21.036;2022-12-29T00:08:58;100093.93;;;5.60;77.29
35507;BME280;36461;52.018;21.036;2022-12-29T00:11:26;100102.08;;;5.61;77.29
35507;BME280;36461;52.018;21.036;2022-12-29T00:13:54;100103.36;;;5.61;77.21
35507;BME280;36461;52.018;21.036;2022-12-29T00:16:43;100099.95;;;5.60;77.21
35507;BME280;36461;52.018;21.036;2022-12-29T00:19:11;100103.03;;;5.55;77.17
35507;BME280;36461;52.018;21.036;2022-12-29T00:21:58;100103.06;;;5.53;77.19
35507;BME280;36461;52.018;21.036;2022-12-29T00:24:45;100097.05;;;5.53;77.18
35507;BME280;36461;52.018;21.036;2022-12-29T00:27:30;100102.55;;;5.57;77.32
35507;BME280;36461;52.018;21.036;2022-12-29T00:30:17;100104.71;;;5.58;77.15
35507;BME280;36461;52.018;21.036;2022-12-29T00:33:18;100110.70;;;5.58;77.17
35507;BME280;36461;52.018;21.036;2022-12-29T00:38:47;100099.92;;;5.62;77.35
35507;BME280;36461;52.018;21.036;2022-12-29T00:41:34;100094.77;;;5.62;77.17
35507;BME280;36461;52.018;21.036;2022-12-29T00:44:19;100102.50;;;5.62;77.25
35507;BME280;36461;52.018;21.036;2022-12-29T00:46:46;100102.50;;;5.62;77.19
35507;BME280;36461;52.018;21.036;2022-12-29T00:49:13;100110.25;;;5.60;77.04
35507;BME280;36461;52.018;21.036;2022-12-29T00:52:02;100108.06;;;5.61;77.07
35507;BME280;36461;52.018;21.036;2022-12-29T00:54:37;100106.42;;;5.59;77.05
35507;BME280;36461;52.018;21.036;2022-12-29T00:57:07;100106.00;;;5.58;77.01
35507;BME280;36461;52.018;21.036;2022-12-29T00:59:36;100108.58;;;5.58;76.76
35507;BME280;36461;52.018;21.036;2022-12-29T01:02:04;100101.33;;;5.54;76.61
35507;BME280;36461;52.018;21.036;2022-12-29T01:04:31;100106.03;;;5.56;76.68
35507;BME280;36461;52.018;21.036;2022-12-29T01:06:57;100094.83;;;5.59;76.94
35507;BME280;36461;52.018;21.036;2022-12-29T01:09:24;100091.33;;;5.61;76.69
35507;BME280;36461;52.018;21.036;2022-12-29T01:12:09;100095.19;;;5.61;76.65
35507;BME280;36461;52.018;21.036;2022-12-29T01:14:36;100087.88;;;5.62;76.55
35507;BME280;36461;52.018;21.036;2022-12-29T01:17:04;100082.77;;;5.61;76.62
35507;BME280;36461;52.018;21.036;2022-12-29T01:19:32;100086.20;;;5.60;76.43
35507;BME280;36461;52.018;21.036;2022-12-29T01:22:00;100089.23;;;5.59;76.35
35507;BME280;36461;52.018;21.036;2022-12-29T01:24:27;100085.40;;;5.58;76.27
35507;BME280;36461;52.018;21.036;2022-12-29T01:26:54;100079.86;;;5.55;76.22
35507;BME280;36461;52.018;21.036;2022-12-29T01:29:20;100074.27;;;5.55;76.51
35507;BME280;36461;52.018;21.036;2022-12-29T01:31:47;100065.31;;;5.52;76.20
35507;BME280;36461;52.018;21.036;2022-12-29T01:34:15;100058.00;;;5.53;76.54
35507;BME280;36461;52.018;21.036;2022-12-29T01:36:41;100060.97;;;5.54;76.46
35507;BME280;36461;52.018;21.036;2022-12-29T01:39:08;100049.80;;;5.55;76.60
35507;BME280;36461;52.018;21.036;2022-12-29T01:41:34;100052.80;;;5.57;76.66
35507;BME280;36461;52.018;21.036;2022-12-29T01:44:01;100046.30;;;5.60;76.72
35507;BME280;36461;52.018;21.036;2022-12-29T01:51:52;100048.84;;;5.61;76.30
35507;BME280;36461;52.018;21.036;2022-12-29T01:54:26;100042.05;;;5.59;76.54
35507;BME280;36461;52.018;21.036;2022-12-29T01:57:00;100042.52;;;5.55;76.11
35507;BME280;36461;52.018;21.036;2022-12-29T01:59:32;100040.82;;;5.54;76.33
35507;BME280;36461;52.018;21.036;2022-12-29T02:02:01;100026.20;;;5.56;76.16
35507;BME280;36461;52.018;21.036;2022-12-29T02:04:30;100019.36;;;5.55;76.13
35507;BME280;36461;52.018;21.036;2022-12-29T02:07:03;100022.34;;;5.54;76.53
35507;BME280;36461;52.018;21.036;2022-12-29T02:09:34;100027.95;;;5.54;76.34
35507;BME280;36461;52.018;21.036;2022-12-29T02:12:01;100028.81;;;5.53;76.17
35507;BME280;36461;52.018;21.036;2022-12-29T02:14:28;100022.38;;;5.53;75.98
35507;BME280;36461;52.018;21.036;2022-12-29T02:17:19;100024.53;;;5.53;75.83
35507;BME280;36461;52.018;21.036;2022-12-29T02:20:27;100021.09;;;5.53;75.80
35507;BME280;36461;52.018;21.036;2022-12-29T02:37:31;100020.77;;;5.47;75.29
35507;BME280;36461;52.018;21.036;2022-12-29T02:48:32;100026.01;;;5.43;75.51
35507;BME280;36461;52.018;21.036;2022-12-29T02:51:18;100029.87;;;5.43;75.67
35507;BME280;36461;52.018;21.036;2022-12-29T02:53:52;100035.02;;;5.41;75.60
35507;BME280;36461;52.018;21.036;2022-12-29T02:56:38;100035.05;;;5.40;76.04
35507;BME280;36461;52.018;21.036;2022-12-29T02:59:04;100040.16;;;5.43;76.10
35507;BME280;36461;52.018;21.036;2022-12-29T03:13:08;100041.23;;;5.29;77.75
35507;BME280;36461;52.018;21.036;2022-12-29T03:21:59;100042.64;;;5.21;78.77
35507;BME280;36461;52.018;21.036;2022-12-29T03:24:50;100039.28;;;5.16;79.11
35507;BME280;36461;52.018;21.036;2022-12-29T03:27:29;100046.22;;;5.11;79.41
35507;BME280;36461;52.018;21.036;2022-12-29T03:29:57;100040.68;;;5.09;79.67
35507;BME280;36461;52.018;21.036;2022-12-29T03:32:35;100037.72;;;5.08;79.73
35507;BME280;36461;52.018;21.036;2022-12-29T03:35:08;100036.91;;;5.04;80.00
35507;BME280;36461;52.018;21.036;2022-12-29T03:37:41;100031.81;;;5.01;80.31
35507;BME280;36461;52.018;21.036;2022-12-29T03:40:28;100018.98;;;4.98;80.49
35507;BME280;36461;52.018;21.036;2022-12-29T03:42:55;100007.93;;;4.91;80.62
35507;BME280;36461;52.018;21.036;2022-12-29T03:45:22;100007.14;;;4.86;80.88
35507;BME280;36461;52.018;21.036;2022-12-29T03:47:49;99996.44;;;4.86;81.01
35507;BME280;36461;52.018;21.036;2022-12-29T03:50:18;99985.34;;;4.83;81.11
35507;BME280;36461;52.018;21.036;2022-12-29T03:52:44;99981.12;;;4.79;81.24
35507;BME280;36461;52.018;21.036;2022-12-29T03:55:11;99965.72;;;4.77;81.24
35507;BME280;36461;52.018;21.036;2022-12-29T03:57:38;99973.01;;;4.76;81.43
35507;BME280;36461;52.018;21.036;2022-12-29T04:00:08;99964.01;;;4.76;81.49
35507;BME280;36461;52.018;21.036;2022-12-29T04:02:41;99963.14;;;4.77;81.50
35507;BME280;36461;52.018;21.036;2022-12-29T04:05:10;99961.44;;;4.76;81.50
35507;BME280;36461;52.018;21.036;2022-12-29T04:07:37;99954.70;;;4.69;81.52
35507;BME280;36461;52.018;21.036;2022-12-29T04:10:05;99948.30;;;4.66;81.53
35507;BME280;36461;52.018;21.036;2022-12-29T04:12:34;99947.93;;;4.62;81.47
35507;BME280;36461;52.018;21.036;2022-12-29T04:15:01;99936.03;;;4.56;81.73
35507;BME280;36461;52.018;21.036;2022-12-29T04:17:28;99945.11;;;4.51;81.69
35507;BME280;36461;52.018;21.036;2022-12-29T04:19:55;99960.13;;;4.49;81.95
35507;BME280;36461;52.018;21.036;2022-12-29T04:22:23;99958.45;;;4.46;82.08
35507;BME280;36461;52.018;21.036;2022-12-29T04:24:50;99967.89;;;4.44;82.03
35507;BME280;36461;52.018;21.036;2022-12-29T04:27:17;99963.22;;;4.42;82.06
35507;BME280;36461;52.018;21.036;2022-12-29T04:29:51;99950.81;;;4.40;82.17
35507;BME280;36461;52.018;21.036;2022-12-29T04:32:35;99947.80;;;4.42;82.33
35507;BME280;36461;52.018;21.036;2022-12-29T04:35:01;99953.80;;;4.41;82.12
35507;BME280;36461;52.018;21.036;2022-12-29T04:37:28;99950.81;;;4.40;82.12
35507;BME280;36461;52.018;21.036;2022-12-29T04:39:55;99953.04;;;4.34;81.97
35507;BME280;36461;52.018;21.036;2022-12-29T04:42:21;99957.76;;;4.33;82.04
35507;BME280;36461;52.018;21.036;2022-12-29T04:44:48;99952.64;;;4.32;82.06
35507;BME280;36461;52.018;21.036;2022-12-29T04:47:17;99942.79;;;4.33;82.04
35507;BME280;36461;52.018;21.036;2022-12-29T04:49:54;99939.37;;;4.31;81.83
35507;BME280;36461;52.018;21.036;2022-12-29T04:52:35;99945.40;;;4.28;81.89
35507;BME280;36461;52.018;21.036;2022-12-29T04:55:03;99939.00;;;4.27;81.94
35507;BME280;36461;52.018;21.036;2022-12-29T04:57:30;99939.08;;;4.22;81.74
35507;BME280;36461;52.018;21.036;2022-12-29T04:59:59;99935.62;;;4.25;81.93
35507;BME280;36461;52.018;21.036;2022-12-29T05:02:25;99932.61;;;4.25;81.76
35507;BME280;36461;52.018;21.036;2022-12-29T05:04:53;99927.94;;;4.22;81.73
35507;BME280;36461;52.018;21.036;2022-12-29T05:07:20;99924.13;;;4.18;81.92
35507;BME280;36461;52.018;21.036;2022-12-29T05:09:47;99931.89;;;4.15;81.80
35507;BME280;36461;52.018;21.036;2022-12-29T05:12:14;99920.77;;;4.13;81.82
35507;BME280;36461;52.018;21.036;2022-12-29T05:14:42;99918.67;;;4.11;81.75
35507;BME280;36461;52.018;21.036;2022-12-29T05:17:09;99917.36;;;4.13;81.72
35507;BME280;36461;52.018;21.036;2022-12-29T05:19:36;99913.53;;;4.11;81.44
35507;BME280;36461;52.018;21.036;2022-12-29T05:22:04;99917.81;;;4.12;81.63
35507;BME280;36461;52.018;21.036;2022-12-29T05:24:31;99917.80;;;4.11;81.66
35507;BME280;36461;52.018;21.036;2022-12-29T05:26:58;99908.38;;;4.13;81.77
35507;BME280;36461;52.018;21.036;2022-12-29T05:29:38;99919.91;;;4.14;81.80
35507;BME280;36461;52.018;21.036;2022-12-29T05:32:05;99903.23;;;4.13;81.88
35507;BME280;36461;52.018;21.036;2022-12-29T05:34:32;99909.23;;;4.12;81.59
35507;BME280;36461;52.018;21.036;2022-12-29T05:36:58;99901.53;;;4.12;81.81
35507;BME280;36461;52.018;21.036;2022-12-29T05:39:25;99893.41;;;4.12;81.74
35507;BME280;36461;52.018;21.036;2022-12-29T05:41:53;99892.54;;;4.12;81.81
35507;BME280;36461;52.018;21.036;2022-12-29T05:44:38;99886.12;;;4.12;81.99
35507;BME280;36461;52.018;21.036;2022-12-29T05:47:13;99883.55;;;4.12;82.00
35507;BME280;36461;52.018;21.036;2022-12-29T05:49:41;99870.31;;;4.09;81.85
35507;BME280;36461;52.018;21.036;2022-12-29T05:52:09;99874.27;;;4.03;81.78
35507;BME280;36461;52.018;21.036;2022-12-29T05:54:36;99875.97;;;4.02;81.97
35507;BME280;36461;52.018;21.036;2022-12-29T05:57:04;99878.56;;;4.01;82.17
35507;BME280;36461;52.018;21.036;2022-12-29T05:59:32;99879.02;;;3.97;81.95
35507;BME280;36461;52.018;21.036;2022-12-29T06:01:58;99876.04;;;3.98;82.09
35507;BME280;36461;52.018;21.036;2022-12-29T06:04:25;99875.17;;;3.97;81.98
35507;BME280;36461;52.018;21.036;2022-12-29T06:06:52;99875.62;;;3.97;81.89
35507;BME280;36461;52.018;21.036;2022-12-29T06:09:20;99875.59;;;3.98;81.91
35507;BME280;36461;52.018;21.036;2022-12-29T06:11:46;99875.12;;;4.02;81.83
35507;BME280;36461;52.018;21.036;2022-12-29T06:14:13;99875.08;;;4.05;81.83
35507;BME280;36461;52.018;21.036;2022-12-29T06:16:39;99873.35;;;4.07;81.79
35507;BME280;36461;52.018;21.036;2022-12-29T06:19:08;99870.75;;;4.09;81.51
35507;BME280;36461;52.018;21.036;2022-12-29T06:21:36;99872.85;;;4.11;81.47
35507;BME280;36461;52.018;21.036;2022-12-29T06:24:04;99885.23;;;4.14;81.72
35507;BME280;36461;52.018;21.036;2022-12-29T06:26:31;99871.09;;;4.14;81.29
35507;BME280;36461;52.018;21.036;2022-12-29T06:28:58;99871.94;;;4.15;81.47
35507;BME280;36461;52.018;21.036;2022-12-29T06:31:25;99869.76;;;4.17;81.43
35507;BME280;36461;52.018;21.036;2022-12-29T06:33:51;99874.06;;;4.17;81.33
35507;BME280;36461;52.018;21.036;2022-12-29T06:36:17;99889.01;;;4.20;81.37
35507;BME280;36461;52.018;21.036;2022-12-29T06:38:43;99882.98;;;4.22;80.96
35507;BME280;36461;52.018;21.036;2022-12-29T06:41:10;99884.23;;;4.25;81.21
35507;BME280;36461;52.018;21.036;2022-12-29T06:43:54;99872.17;;;4.28;81.11
35507;BME280;36461;52.018;21.036;2022-12-29T06:46:23;99885.83;;;4.32;81.06
35507;BME280;36461;52.018;21.036;2022-12-29T06:48:49;99879.36;;;4.36;80.99
35507;BME280;36461;52.018;21.036;2022-12-29T06:51:16;99886.56;;;4.40;80.85
35507;BME280;36461;52.018;21.036;2022-12-29T06:53:42;99878.33;;;4.47;80.86
35507;BME280;36461;52.018;21.036;2022-12-29T06:56:09;99883.86;;;4.49;80.85
35507;BME280;36461;52.018;21.036;2022-12-29T06:58:35;99891.57;;;4.49;80.80
35507;BME280;36461;52.018;21.036;2022-12-29T07:01:02;99883.86;;;4.49;80.66
35507;BME280;36461;52.018;21.036;2022-12-29T07:03:28;99886.02;;;4.50;80.62
35507;BME280;36461;52.018;21.036;2022-12-29T07:05:55;99880.00;;;4.49;80.41
35507;BME280;36461;52.018;21.036;2022-12-29T07:08:24;99877.88;;;4.49;80.44
35507;BME280;36461;52.018;21.036;2022-12-29T07:10:50;99881.23;;;4.52;80.40
35507;BME280;36461;52.018;21.036;2022-12-29T07:13:17;99879.05;;;4.55;80.29
35507;BME280;36461;52.018;21.036;2022-12-29T07:15:43;99873.47;;;4.57;80.17
35507;BME280;36461;52.018;21.036;2022-12-29T07:18:09;99872.60;;;4.58;79.94
35507;BME280;36461;52.018;21.036;2022-12-29T07:20:36;99875.45;;;4.67;80.30
35507;BME280;36461;52.018;21.036;2022-12-29T07:23:02;99868.48;;;4.74;80.17
35507;BME280;36461;52.018;21.036;2022-12-29T07:25:29;99867.58;;;4.76;80.17
35507;BME280;36461;52.018;21.036;2022-12-29T07:27:55;99870.06;;;4.82;80.14
35507;BME280;36461;52.018;21.036;2022-12-29T07:30:21;99865.66;;;4.89;80.24
35507;BME280;36461;52.018;21.036;2022-12-29T07:32:48;99854.86;;;4.93;80.08
35507;BME280;36461;52.018;21.036;2022-12-29T07:35:14;99866.44;;;4.94;79.71
35507;BME280;36461;52.018;21.036;2022-12-29T07:37:41;99872.87;;;4.94;79.45
35507;BME280;36461;52.018;21.036;2022-12-29T07:40:10;99875.34;;;4.99;79.79
35507;BME280;36461;52.018;21.036;2022-12-29T07:42:37;99874.89;;;4.99;79.30
35507;BME280;36461;52.018;21.036;2022-12-29T07:45:05;99873.16;;;5.01;79.16
35507;BME280;36461;52.018;21.036;2022-12-29T07:47:34;99881.27;;;5.04;78.87
35507;BME280;36461;52.018;21.036;2022-12-29T07:50:01;99879.43;;;5.11;78.74
35507;BME280;36461;52.018;21.036;2022-12-29T07:52:28;99878.05;;;5.15;78.94
35507;BME280;36461;52.018;21.036;2022-12-29T07:54:54;99880.11;;;5.20;79.22
35507;BME280;36461;52.018;21.036;2022-12-29T07:57:21;99883.03;;;5.25;79.04
35507;BME280;36461;52.018;21.036;2022-12-29T07:59:47;99881.26;;;5.28;78.09
35507;BME280;36461;52.018;21.036;2022-12-29T08:02:13;99879.87;;;5.33;78.18
35507;BME280;36461;52.018;21.036;2022-12-29T08:04:40;99868.98;;;5.41;78.12
35507;BME280;36461;52.018;21.036;2022-12-29T08:07:06;99881.72;;;5.49;77.92
35507;BME280;36461;52.018;21.036;2022-12-29T08:09:33;99866.13;;;5.57;77.87
35507;BME280;36461;52.018;21.036;2022-12-29T08:11:59;99866.40;;;5.64;78.22
35507;BME280;36461;52.018;21.036;2022-12-29T08:14:25;99865.94;;;5.66;77.87
35507;BME280;36461;52.018;21.036;2022-12-29T08:16:52;99866.73;;;5.68;77.50
35507;BME280;36461;52.018;21.036;2022-12-29T08:19:18;99863.14;;;5.77;77.61
35507;BME280;36461;52.018;21.036;2022-12-29T08:21:45;99858.38;;;5.79;76.64
35507;BME280;36461;52.018;21.036;2022-12-29T08:24:14;99858.34;;;5.81;76.51
35507;BME280;36461;52.018;21.036;2022-12-29T08:26:40;99850.57;;;5.82;76.53
35507;BME280;36461;52.018;21.036;2022-12-29T08:29:07;99857.39;;;5.85;76.36
35507;BME280;36461;52.018;21.036;2022-12-29T08:31:34;99855.48;;;5.93;76.69
35507;BME280;36461;52.018;21.036;2022-12-29T08:34:01;99854.53;;;6.00;76.36
35507;BME280;36461;52.018;21.036;2022-12-29T08:36:30;99847.09;;;6.06;76.80
35507;BME280;36461;52.018;21.036;2022-12-29T08:38:57;99853.50;;;6.08;76.66
35507;BME280;36461;52.018;21.036;2022-12-29T08:41:24;99861.15;;;6.11;76.66
35507;BME280;36461;52.018;21.036;2022-12-29T08:43:51;99861.11;;;6.14;76.34
35507;BME280;36461;52.018;21.036;2022-12-29T08:46:19;99863.15;;;6.17;75.56
35507;BME280;36461;52.018;21.036;2022-12-29T08:48:45;99869.92;;;6.23;75.44
35507;BME280;36461;52.018;21.036;2022-12-29T08:51:12;99868.06;;;6.28;75.37
35507;BME280;36461;52.018;21.036;2022-12-29T08:53:39;99869.63;;;6.35;74.83
35507;BME280;36461;52.018;21.036;2022-12-29T08:56:08;99867.84;;;6.37;74.51
35507;BME280;36461;52.018;21.036;2022-12-29T08:58:37;99864.73;;;6.43;74.06
35507;BME280;36461;52.018;21.036;2022-12-29T09:01:04;99865.02;;;6.48;73.98
35507;BME280;36461;52.018;21.036;2022-12-29T09:03:32;99866.17;;;6.54;73.48
35507;BME280;36461;52.018;21.036;2022-12-29T09:05:58;99871.98;;;6.63;73.84
35507;BME280;36461;52.018;21.036;2022-12-29T09:08:25;99870.61;;;6.66;73.91
35507;BME280;36461;52.018;21.036;2022-12-29T09:10:51;99868.35;;;6.71;73.31
35507;BME280;36461;52.018;21.036;2022-12-29T09:13:18;99864.44;;;6.73;72.93
35507;BME280;36461;52.018;21.036;2022-12-29T09:15:44;99866.94;;;6.76;72.85
35507;BME280;36461;52.018;21.036;2022-12-29T09:18:11;99871.13;;;6.80;72.86
35507;BME280;36461;52.018;21.036;2022-12-29T09:20:38;99859.38;;;6.86;72.99
35507;BME280;36461;52.018;21.036;2022-12-29T09:23:04;99862.69;;;6.92;72.65
35507;BME280;36461;52.018;21.036;2022-12-29T09:25:33;99856.06;;;6.98;72.91
35507;BME280;36461;52.018;21.036;2022-12-29T09:27:59;99851.18;;;7.03;72.21
35507;BME280;36461;52.018;21.036;2022-12-29T09:30:28;99849.37;;;7.07;72.36
35507;BME280;36461;52.018;21.036;2022-12-29T09:32:55;99850.98;;;7.11;71.85
35507;BME280;36461;52.018;21.036;2022-12-29T09:35:22;99852.19;;;7.14;71.85
35507;BME280;36461;52.018;21.036;2022-12-29T09:37:48;99846.46;;;7.19;71.81
35507;BME280;36461;52.018;21.036;2022-12-29T09:40:24;99845.53;;;7.22;70.95
35507;BME280;36461;52.018;21.036;2022-12-29T09:43:13;99844.80;;;7.18;70.98
35507;BME280;36461;52.018;21.036;2022-12-29T09:48:38;99847.44;;;7.15;70.64
35507;BME280;36461;52.018;21.036;2022-12-29T09:51:12;99842.77;;;7.13;70.41
35507;BME280;36461;52.018;21.036;2022-12-29T09:53:43;99845.03;;;7.09;70.62
35507;BME280;36461;52.018;21.036;2022-12-29T09:56:23;99838.58;;;7.09;70.60
35507;BME280;36461;52.018;21.036;2022-12-29T09:59:10;99832.92;;;7.11;70.90
35507;BME280;36461;52.018;21.036;2022-12-29T10:01:57;99829.93;;;7.10;70.65
35507;BME280;36461;52.018;21.036;2022-12-29T10:04:27;99826.36;;;7.16;70.43
35507;BME280;36461;52.018;21.036;2022-12-29T10:07:03;99831.48;;;7.17;70.43
35507;BME280;36461;52.018;21.036;2022-12-29T10:09:55;99825.75;;;7.22;70.70
35507;BME280;36461;52.018;21.036;2022-12-29T10:18:31;99831.45;;;7.34;70.74
35507;BME280;36461;52.018;21.036;2022-12-29T10:23:54;99810.94;;;7.44;69.77
35507;BME280;36461;52.018;21.036;2022-12-29T10:26:33;99807.02;;;7.46;70.19
35507;BME280;36461;52.018;21.036;2022-12-29T10:29:17;99810.27;;;7.52;70.00
35507;BME280;36461;52.018;21.036;2022-12-29T10:31:58;99801.85;;;7.61;69.66
35507;BME280;36461;52.018;21.036;2022-12-29T10:34:36;99802.16;;;7.65;70.53
35507;BME280;36461;52.018;21.036;2022-12-29T10:39:58;99798.28;;;7.65;69.50
35507;BME280;36461;52.018;21.036;2022-12-29T10:42:34;99799.00;;;7.70;69.27
35507;BME280;36461;52.018;21.036;2022-12-29T10:45:04;99799.78;;;7.72;69.25
35507;BME280;36461;52.018;21.036;2022-12-29T10:47:35;99800.49;;;7.77;69.21
35507;BME280;36461;52.018;21.036;2022-12-29T10:50:05;99792.74;;;7.77;68.85
35507;BME280;36461;52.018;21.036;2022-12-29T10:52:34;99787.09;;;7.79;69.14
35507;BME280;36461;52.018;21.036;2022-12-29T10:55:24;99787.09;;;7.79;68.98
35507;BME280;36461;52.018;21.036;2022-12-29T10:57:42;99783.86;;;7.72;68.44
35507;BME280;36461;52.018;21.036;2022-12-29T11:00:19;99776.58;;;7.70;68.47
35507;BME280;36461;52.018;21.036;2022-12-29T11:06:07;99773.77;;;7.78;69.03
35507;BME280;36461;52.018;21.036;2022-12-29T11:08:37;99770.96;;;7.86;68.67
35507;BME280;36461;52.018;21.036;2022-12-29T11:11:09;99778.96;;;7.92;68.72
35507;BME280;36461;52.018;21.036;2022-12-29T11:13:50;99779.27;;;7.96;68.86
35507;BME280;36461;52.018;21.036;2022-12-29T11:16:33;99783.84;;;8.01;68.35
35507;BME280;36461;52.018;21.036;2022-12-29T11:19:01;99783.44;;;8.00;68.20
35507;BME280;36461;52.018;21.036;2022-12-29T11:24:17;99780.96;;;7.97;68.30
35507;BME280;36461;52.018;21.036;2022-12-29T11:26:55;99778.68;;;8.01;68.20
35507;BME280;36461;52.018;21.036;2022-12-29T11:29:36;99776.45;;;8.03;68.17
35507;BME280;36461;52.018;21.036;2022-12-29T11:34:49;99765.11;;;8.08;67.88
35507;BME280;36461;52.018;21.036;2022-12-29T11:37:19;99764.17;;;8.10;68.13
35507;BME280;36461;52.018;21.036;2022-12-29T11:40:02;99765.88;;;8.11;67.74
35507;BME280;36461;52.018;21.036;2022-12-29T11:42:40;99762.88;;;8.10;68.12
35507;BME280;36461;52.018;21.036;2022-12-29T11:45:19;99763.77;;;8.09;67.97
35507;BME280;36461;52.018;21.036;2022-12-29T11:47:50;99768.00;;;8.12;68.10
35507;BME280;36461;52.018;21.036;2022-12-29T11:50:28;99769.53;;;8.17;67.86
35507;BME280;36461;52.018;21.036;2022-12-29T11:53:28;99771.06;;;8.23;67.96
35507;BME280;36461;52.018;21.036;2022-12-29T11:55:55;99766.25;;;8.26;68.04
35507;BME280;36461;52.018;21.036;2022-12-29T11:58:19;99766.19;;;8.27;67.86
35507;BME280;36461;52.018;21.036;2022-12-29T12:00:46;99767.05;;;8.28;67.81
35507;BME280;36461;52.018;21.036;2022-12-29T12:03:21;99772.58;;;8.30;68.09
35507;BME280;36461;52.018;21.036;2022-12-29T12:05:59;99770.94;;;8.28;68.40
35507;BME280;36461;52.018;21.036;2022-12-29T12:08:45;99761.08;;;8.26;68.55
35507;BME280;36461;52.018;21.036;2022-12-29T12:11:19;99765.01;;;8.24;68.57
35507;BME280;36461;52.018;21.036;2022-12-29T12:17:16;99753.43;;;8.22;68.84
35507;BME280;36461;52.018;21.036;2022-12-29T12:22:45;99757.25;;;8.24;68.95
35507;BME280;36461;52.018;21.036;2022-12-29T12:25:27;99751.19;;;8.25;68.79
35507;BME280;36461;52.018;21.036;2022-12-29T12:28:17;99751.14;;;8.27;69.21
35507;BME280;36461;52.018;21.036;2022-12-29T12:30:47;99754.91;;;8.30;69.52
35507;BME280;36461;52.018;21.036;2022-12-29T12:33:36;99748.44;;;8.30;69.34
35507;BME280;36461;52.018;21.036;2022-12-29T12:39:08;99747.72;;;8.26;69.61
35507;BME280;36461;52.018;21.036;2022-12-29T12:42:12;99749.55;;;8.22;69.59
35507;BME280;36461;52.018;21.036;2022-12-29T12:48:05;99750.02;;;8.22;69.60
35507;BME280;36461;52.018;21.036;2022-12-29T12:51:05;99742.27;;;8.20;69.67
35507;BME280;36461;52.018;21.036;2022-12-29T12:53:38;99741.84;;;8.21;69.54
35507;BME280;36461;52.018;21.036;2022-12-29T12:56:37;99729.33;;;8.22;69.74
35507;BME280;36461;52.018;21.036;2022-12-29T12:59:16;99722.29;;;8.26;69.73
35507;BME280;36461;52.018;21.036;2022-12-29T13:05:05;99725.57;;;8.31;69.69
35507;BME280;36461;52.018;21.036;2022-12-29T13:16:48;99717.05;;;8.40;68.77
35507;BME280;36461;52.018;21.036;2022-12-29T13:22:33;99729.35;;;8.47;68.82
35507;BME280;36461;52.018;21.036;2022-12-29T13:28:00;99739.67;;;8.49;68.52
35507;BME280;36461;52.018;21.036;2022-12-29T13:36:40;99746.62;;;8.47;68.32
35507;BME280;36461;52.018;21.036;2022-12-29T13:39:16;99741.91;;;8.46;67.91
35507;BME280;36461;52.018;21.036;2022-12-29T13:41:47;99747.54;;;8.44;68.18
35507;BME280;36461;52.018;21.036;2022-12-29T13:44:34;99747.97;;;8.45;68.12
35507;BME280;36461;52.018;21.036;2022-12-29T13:47:21;99736.42;;;8.42;68.23
35507;BME280;36461;52.018;21.036;2022-12-29T13:49:50;99738.60;;;8.41;68.28
35507;BME280;36461;52.018;21.036;2022-12-29T13:52:21;99741.19;;;8.41;68.26
35507;BME280;36461;52.018;21.036;2022-12-29T13:55:07;99735.13;;;8.42;68.21
35507;BME280;36461;52.018;21.036;2022-12-29T13:57:51;99738.48;;;8.44;68.44
35507;BME280;36461;52.018;21.036;2022-12-29T14:00:23;99734.18;;;8.45;68.26
35507;BME280;36461;52.018;21.036;2022-12-29T14:08:39;99744.84;;;8.49;67.86
35507;BME280;36461;52.018;21.036;2022-12-29T14:11:11;99743.50;;;8.50;67.99
35507;BME280;36461;52.018;21.036;2022-12-29T14:13:43;99750.73;;;8.52;67.82
35507;BME280;36461;52.018;21.036;2022-12-29T14:18:57;99746.43;;;8.53;67.87
35507;BME280;36461;52.018;21.036;2022-12-29T14:21:53;99748.20;;;8.51;67.84
35507;BME280;36461;52.018;21.036;2022-12-29T14:29:46;99754.19;;;8.53;67.87
35507;BME280;36461;52.018;21.036;2022-12-29T14:35:00;99745.08;;;8.54;67.97
35507;BME280;36461;52.018;21.036;2022-12-29T14:37:47;99747.78;;;8.51;67.76
35507;BME280;36461;52.018;21.036;2022-12-29T14:42:53;99735.27;;;8.51;67.78
35507;BME280;36461;52.018;21.036;2022-12-29T14:45:27;99736.08;;;8.53;67.63
35507;BME280;36461;52.018;21.036;2022-12-29T14:47:55;99743.73;;;8.56;67.78
35507;BME280;36461;52.018;21.036;2022-12-29T14:50:42;99741.98;;;8.56;68.15
35507;BME280;36461;52.018;21.036;2022-12-29T14:53:48;99741.14;;;8.56;67.95
35507;BME280;36461;52.018;21.036;2022-12-29T14:56:18;99735.56;;;8.55;67.85
35507;BME280;36461;52.018;21.036;2022-12-29T14:58:54;99737.72;;;8.55;67.90
35507;BME280;36461;52.018;21.036;2022-12-29T15:01:47;99742.03;;;8.55;67.54
35507;BME280;36461;52.018;21.036;2022-12-29T15:04:21;99741.55;;;8.57;67.77
35507;BME280;36461;52.018;21.036;2022-12-29T15:06:53;99744.56;;;8.56;67.74
35507;BME280;36461;52.018;21.036;2022-12-29T15:09:47;99748.50;;;8.55;67.78
35507;BME280;36461;52.018;21.036;2022-12-29T15:15:17;99752.55;;;8.50;68.09
35507;BME280;36461;52.018;21.036;2022-12-29T15:17:46;99743.15;;;8.48;68.14
35507;BME280;36461;52.018;21.036;2022-12-29T15:23:04;99747.03;;;8.48;67.94
35507;BME280;36461;52.018;21.036;2022-12-29T15:25:59;99741.45;;;8.47;68.42
35507;BME280;36461;52.018;21.036;2022-12-29T15:28:43;99745.39;;;8.45;68.17
35507;BME280;36461;52.018;21.036;2022-12-29T15:31:13;99742.34;;;8.46;68.13
35507;BME280;36461;52.018;21.036;2022-12-29T15:33:45;99741.45;;;8.47;68.32
35507;BME280;36461;52.018;21.036;2022-12-29T15:36:23;99744.44;;;8.48;68.16
35507;BME280;36461;52.018;21.036;2022-12-29T15:38:53;99742.69;;;8.48;68.19